Time;durP1;ratioP1;P1;durP2;ratioP2;P2;SDS_P1;SDS_P2;PMS_P1;PMS_P2;Temp;Humidity;BMP_temperature;BMP_pressure;BME280_temperature;BME280_humidity;BME280_pressure;Samples;Min_cycle;Max_cycle;Signal;HPM_P1;HPM_P2
2022/06/03 00:00:00;;;;;;;3.67;2.20;;;;;;;;;;5057373;28;20238;-82
2022/06/03 00:02:57;;;;;;;5.40;2.10;;;;;;;;;;5059440;28;20228;-82
2022/06/03 00:05:39;;;;;;;4.17;2.10;;;;;;;;;;5057423;28;20313;-82
2022/06/03 00:08:16;;;;;;;2.40;2.20;;;;;;;;;;5063152;28;20300;-82
2022/06/03 00:10:54;;;;;;;2.07;1.97;;;;;;;;;;5065169;28;20248;-82
2022/06/03 00:13:33;;;;;;;1.83;1.73;;;;;;;;;;5065318;28;20576;-82
2022/06/03 00:16:08;;;;;;;2.33;2.13;;;;;;;;;;5065200;28;20229;-82
2022/06/03 00:18:48;;;;;;;2.10;1.90;;;;;;;;;;5064944;28;20206;-82
2022/06/03 00:21:22;;;;;;;4.63;2.20;;;;;;;;;;5064926;28;20517;-82
2022/06/03 00:23:58;;;;;;;3.47;2.43;;;;;;;;;;5064827;28;20233;-82
2022/06/03 00:26:49;;;;;;;2.73;2.13;;;;;;;;;;5061480;28;20233;-82
2022/06/03 00:29:30;;;;;;;2.40;2.00;;;;;;;;;;5059243;28;20245;-81
2022/06/03 00:32:13;;;;;;;4.43;1.87;;;;;;;;;;5058713;28;20289;-83
2022/06/03 00:34:50;;;;;;;2.17;2.00;;;;;;;;;;5057164;28;20705;-82
2022/06/03 00:37:29;;;;;;;2.33;2.00;;;;;;;;;;5057909;28;20190;-82
2022/06/03 00:40:03;;;;;;;3.30;2.10;;;;;;;;;;5056868;28;20244;-82
2022/06/03 00:42:38;;;;;;;2.70;1.90;;;;;;;;;;5057577;28;20194;-82
2022/06/03 00:45:14;;;;;;;2.50;2.30;;;;;;;;;;5056619;28;20240;-81
2022/06/03 00:47:47;;;;;;;2.60;1.90;;;;;;;;;;5057978;28;20213;-82
2022/06/03 00:50:26;;;;;;;3.00;1.90;;;;;;;;;;5056648;28;20244;-82
2022/06/03 00:53:11;;;;;;;2.37;2.17;;;;;;;;;;5056800;28;20538;-81
2022/06/03 00:55:58;;;;;;;2.00;1.90;;;;;;;;;;5056927;28;20233;-81
2022/06/03 00:58:32;;;;;;;2.00;1.90;;;;;;;;;;5057063;28;20213;-82
2022/06/03 01:01:07;;;;;;;2.47;1.90;;;;;;;;;;5055961;28;20716;-82
2022/06/03 01:03:39;;;;;;;2.30;2.10;;;;;;;;;;5057535;28;20300;-82
2022/06/03 01:06:20;;;;;;;2.03;1.87;;;;;;;;;;5056294;28;20246;-81
2022/06/03 01:08:57;;;;;;;2.30;2.10;;;;;;;;;;5052473;28;20565;-81
2022/06/03 01:11:32;;;;;;;2.03;1.93;;;;;;;;;;5057187;28;20263;-81
2022/06/03 01:14:16;;;;;;;2.00;1.90;;;;;;;;;;5056948;28;20732;-81
2022/06/03 01:17:01;;;;;;;2.30;2.10;;;;;;;;;;5056624;28;20292;-81
2022/06/03 01:19:37;;;;;;;2.33;2.10;;;;;;;;;;5057209;28;20549;-81
2022/06/03 01:22:20;;;;;;;2.10;1.83;;;;;;;;;;5057376;28;20221;-81
2022/06/03 01:24:59;;;;;;;2.60;2.00;;;;;;;;;;5056327;28;20233;-81
2022/06/03 01:27:34;;;;;;;1.70;1.60;;;;;;;;;;5058034;28;20228;-81
2022/06/03 01:30:11;;;;;;;3.20;1.93;;;;;;;;;;5056743;28;20240;-81
2022/06/03 01:32:53;;;;;;;2.47;1.70;;;;;;;;;;5057446;28;20213;-81
2022/06/03 01:35:39;;;;;;;1.83;1.73;;;;;;;;;;5056816;28;20236;-81
2022/06/03 01:38:10;;;;;;;1.80;1.70;;;;;;;;;;5057154;28;20210;-81
2022/06/03 01:40:48;;;;;;;3.60;1.80;;;;;;;;;;5057166;28;20295;-81
2022/06/03 01:43:43;;;;;;;2.43;2.13;;;;;;;;;;5057067;28;20257;-80
2022/06/03 01:46:20;;;;;;;3.00;2.00;;;;;;;;;;5056181;28;20762;-81
2022/06/03 01:49:02;;;;;;;1.93;1.83;;;;;;;;;;5056717;28;20662;-81
2022/06/03 01:51:39;;;;;;;1.90;1.80;;;;;;;;;;5012912;28;20248;-80
2022/06/03 01:54:24;;;;;;;2.17;2.00;;;;;;;;;;5056832;28;20237;-81
2022/06/03 01:57:07;;;;;;;5.97;2.47;;;;;;;;;;5056410;28;20241;-80
2022/06/03 01:59:53;;;;;;;2.43;1.93;;;;;;;;;;5056203;28;20206;-80
2022/06/03 02:02:43;;;;;;;2.90;2.20;;;;;;;;;;5056601;28;20202;-81
2022/06/03 02:05:25;;;;;;;4.03;2.30;;;;;;;;;;5056281;28;20245;-81
2022/06/03 02:08:00;;;;;;;3.53;2.30;;;;;;;;;;5013598;28;20212;-82
2022/06/03 02:10:46;;;;;;;2.20;2.00;;;;;;;;;;5055119;28;20242;-81
2022/06/03 02:13:28;;;;;;;2.50;2.30;;;;;;;;;;5016292;28;20236;-81
2022/06/03 02:16:17;;;;;;;2.83;2.63;;;;;;;;;;5054410;28;20233;-81
2022/06/03 02:19:00;;;;;;;2.20;2.10;;;;;;;;;;5054904;28;20206;-82
2022/06/03 02:21:54;;;;;;;4.83;2.37;;;;;;;;;;5054280;28;20240;-82
2022/06/03 02:24:38;;;;;;;2.30;2.10;;;;;;;;;;5007248;28;20230;-82
2022/06/03 02:27:23;;;;;;;3.03;2.20;;;;;;;;;;5054716;28;20588;-82
2022/06/03 02:30:24;;;;;;;2.20;2.10;;;;;;;;;;5054739;28;20226;-82
2022/06/03 02:33:09;;;;;;;2.50;2.30;;;;;;;;;;5054738;28;20201;-82
2022/06/03 02:35:42;;;;;;;3.00;2.20;;;;;;;;;;5054603;28;20239;-82
2022/06/03 02:38:15;;;;;;;3.67;2.37;;;;;;;;;;5054531;28;20194;-82
2022/06/03 02:40:53;;;;;;;2.67;2.47;;;;;;;;;;5054202;28;20238;-82
2022/06/03 02:43:34;;;;;;;2.47;2.17;;;;;;;;;;5054557;28;20571;-81
2022/06/03 02:46:13;;;;;;;2.87;2.27;;;;;;;;;;5054716;28;20265;-82
2022/06/03 02:49:04;;;;;;;3.47;2.30;;;;;;;;;;5056878;28;20201;-83
2022/06/03 02:51:47;;;;;;;2.57;2.37;;;;;;;;;;5058927;28;20245;-82
2022/06/03 02:54:24;;;;;;;2.43;2.10;;;;;;;;;;5058652;28;20230;-81
2022/06/03 02:57:01;;;;;;;2.40;2.20;;;;;;;;;;5058453;28;20235;-83
2022/06/03 02:59:39;;;;;;;2.50;2.30;;;;;;;;;;5059150;28;20186;-82
2022/06/03 03:02:28;;;;;;;3.30;2.23;;;;;;;;;;5056945;28;20221;-81
2022/06/03 03:05:03;;;;;;;2.63;2.43;;;;;;;;;;5050390;28;20597;-82
2022/06/03 03:07:54;;;;;;;3.27;2.40;;;;;;;;;;5056341;28;20202;-82
2022/06/03 03:10:27;;;;;;;6.93;2.70;;;;;;;;;;5030667;28;20237;-82
2022/06/03 03:13:12;;;;;;;2.90;2.70;;;;;;;;;;5055551;28;20211;-82
2022/06/03 03:15:47;;;;;;;5.10;2.70;;;;;;;;;;5049992;28;20237;-81
2022/06/03 03:18:24;;;;;;;2.40;2.27;;;;;;;;;;5069862;28;20200;-82
2022/06/03 03:21:00;;;;;;;3.87;2.53;;;;;;;;;;5056391;28;20226;-82
2022/06/03 03:23:43;;;;;;;4.43;3.10;;;;;;;;;;5056966;28;20320;-82
2022/06/03 03:26:16;;;;;;;3.27;2.97;;;;;;;;;;5057247;28;20721;-82
2022/06/03 03:28:52;;;;;;;4.27;2.30;;;;;;;;;;5058204;28;20205;-81
2022/06/03 03:31:37;;;;;;;3.20;2.90;;;;;;;;;;5057075;28;20241;-81
2022/06/03 03:34:19;;;;;;;4.43;2.70;;;;;;;;;;5051271;28;20230;-79
2022/06/03 03:37:12;;;;;;;2.87;2.63;;;;;;;;;;5047264;28;20691;-79
2022/06/03 03:39:54;;;;;;;2.80;2.60;;;;;;;;;;5057837;28;20210;-80
2022/06/03 03:42:40;;;;;;;3.13;2.63;;;;;;;;;;5039091;28;20619;-79
2022/06/03 03:45:37;;;;;;;3.13;2.77;;;;;;;;;;5057657;28;20295;-81
2022/06/03 03:48:23;;;;;;;3.30;2.57;;;;;;;;;;5060853;28;20206;-80
2022/06/03 03:50:56;;;;;;;5.07;2.70;;;;;;;;;;5059075;28;20269;-80
2022/06/03 03:53:38;;;;;;;8.83;3.03;;;;;;;;;;5061222;28;20654;-80
2022/06/03 03:56:32;;;;;;;4.10;2.83;;;;;;;;;;5036062;28;20241;-80
2022/06/03 03:59:25;;;;;;;4.30;2.80;;;;;;;;;;5060324;28;20206;-80
2022/06/03 04:02:07;;;;;;;3.20;3.00;;;;;;;;;;5054594;28;20230;-80
2022/06/03 04:04:53;;;;;;;3.90;3.07;;;;;;;;;;5039637;28;20230;-80
2022/06/03 04:07:35;;;;;;;6.53;2.57;;;;;;;;;;5041035;28;20210;-80
2022/06/03 04:10:27;;;;;;;5.00;2.83;;;;;;;;;;4996874;28;20234;-80
2022/06/03 04:13:15;;;;;;;3.20;3.00;;;;;;;;;;4964877;28;20633;-80
2022/06/03 04:16:00;;;;;;;8.00;3.27;;;;;;;;;;5006351;28;20292;-80
2022/06/03 04:18:40;;;;;;;3.40;3.10;;;;;;;;;;5039919;28;20693;-80
2022/06/03 04:21:21;;;;;;;6.00;2.80;;;;;;;;;;5038259;28;20250;-80
2022/06/03 04:24:06;;;;;;;5.17;3.00;;;;;;;;;;5039384;28;20234;-80
2022/06/03 04:26:45;;;;;;;5.03;2.87;;;;;;;;;;5052868;28;20241;-79
2022/06/03 04:29:35;;;;;;;3.53;3.23;;;;;;;;;;5058865;28;20324;-80
2022/06/03 04:32:20;;;;;;;3.77;3.00;;;;;;;;;;5056129;28;20244;-80
2022/06/03 04:35:06;;;;;;;6.63;3.23;;;;;;;;;;5057345;28;20226;-80
2022/06/03 04:37:52;;;;;;;3.37;3.07;;;;;;;;;;5058358;28;20217;-80
2022/06/03 04:40:49;;;;;;;3.77;3.00;;;;;;;;;;5057062;28;20229;-80
2022/06/03 04:43:53;;;;;;;13.33;3.70;;;;;;;;;;5058567;28;20222;-80
2022/06/03 04:46:42;;;;;;;5.53;3.60;;;;;;;;;;5057841;28;20257;-81
2022/06/03 04:49:24;;;;;;;9.47;4.07;;;;;;;;;;5059096;28;20248;-81
2022/06/03 04:52:12;;;;;;;6.40;4.00;;;;;;;;;;5057052;28;20234;-80
2022/06/03 04:54:57;;;;;;;5.03;3.80;;;;;;;;;;5057881;28;20662;-81
2022/06/03 04:57:50;;;;;;;5.90;3.40;;;;;;;;;;5058440;28;20202;-81
2022/06/03 05:00:29;;;;;;;4.30;3.50;;;;;;;;;;5058194;28;20233;-81
2022/06/03 05:03:15;;;;;;;3.77;3.33;;;;;;;;;;5058313;28;20210;-81
2022/06/03 05:05:58;;;;;;;4.00;3.70;;;;;;;;;;5057610;28;20259;-81
2022/06/03 05:08:49;;;;;;;5.40;3.40;;;;;;;;;;5059569;28;20546;-81
2022/06/03 05:11:31;;;;;;;3.00;2.63;;;;;;;;;;5057574;28;20301;-81
2022/06/03 05:14:25;;;;;;;3.07;2.70;;;;;;;;;;5057397;28;20258;-81
2022/06/03 05:17:11;;;;;;;3.67;2.77;;;;;;;;;;5057230;28;20234;-81
2022/06/03 05:19:55;;;;;;;3.07;2.60;;;;;;;;;;5057659;28;20206;-81
2022/06/03 05:22:42;;;;;;;5.60;2.97;;;;;;;;;;5057329;28;20247;-81
2022/06/03 05:25:30;;;;;;;4.67;2.20;;;;;;;;;;5056247;28;20249;-81
2022/06/03 05:28:09;;;;;;;2.50;2.30;;;;;;;;;;5056809;28;20217;-81
2022/06/03 05:30:47;;;;;;;2.97;2.20;;;;;;;;;;5057096;28;20831;-81
2022/06/03 05:33:37;;;;;;;6.30;2.20;;;;;;;;;;5056791;28;20233;-78
2022/06/03 05:36:31;;;;;;;2.83;2.23;;;;;;;;;;5053247;28;20241;-81
2022/06/03 05:39:30;;;;;;;1.83;1.73;;;;;;;;;;5010250;28;20217;-81
2022/06/03 05:42:27;;;;;;;5.37;2.17;;;;;;;;;;5056923;28;20359;-81
2022/06/03 05:45:03;;;;;;;7.70;1.97;;;;;;;;;;5056467;28;20238;-81
2022/06/03 05:47:33;;;;;;;3.03;1.80;;;;;;;;;;5057482;28;20209;-80
2022/06/03 05:50:03;;;;;;;3.93;2.10;;;;;;;;;;5056607;28;20237;-81
2022/06/03 05:52:38;;;;;;;2.20;2.10;;;;;;;;;;5057899;28;20697;-81
2022/06/03 05:55:15;;;;;;;3.63;1.87;;;;;;;;;;5057651;28;20244;-81
2022/06/03 05:57:47;;;;;;;2.30;2.20;;;;;;;;;;5057674;28;20205;-81
2022/06/03 06:00:35;;;;;;;4.00;1.93;;;;;;;;;;5054778;28;20240;-79
2022/06/03 06:03:20;;;;;;;2.03;1.93;;;;;;;;;;5052679;28;20563;-79
2022/06/03 06:05:51;;;;;;;2.23;2.00;;;;;;;;;;5052299;28;20237;-79
2022/06/03 06:08:22;;;;;;;2.17;2.00;;;;;;;;;;5053349;28;20559;-79
2022/06/03 06:10:55;;;;;;;1.90;1.80;;;;;;;;;;5052718;28;20242;-80
2022/06/03 06:13:25;;;;;;;1.93;1.83;;;;;;;;;;5057142;28;20237;-80
2022/06/03 06:16:04;;;;;;;1.83;1.73;;;;;;;;;;5056338;28;20230;-80
2022/06/03 06:18:35;;;;;;;2.83;1.97;;;;;;;;;;5057580;28;20202;-80
2022/06/03 06:21:13;;;;;;;1.70;1.60;;;;;;;;;;5056031;28;20293;-80
2022/06/03 06:23:43;;;;;;;3.67;2.17;;;;;;;;;;5056071;28;20238;-80
2022/06/03 06:26:28;;;;;;;4.47;1.83;;;;;;;;;;5056355;28;20233;-80
2022/06/03 06:29:03;;;;;;;1.90;1.73;;;;;;;;;;5055888;28;20202;-80
2022/06/03 06:31:39;;;;;;;2.37;1.60;;;;;;;;;;5055625;28;20252;-80
2022/06/03 06:34:17;;;;;;;1.53;1.43;;;;;;;;;;5055228;28;20423;-80
2022/06/03 06:37:00;;;;;;;2.30;1.67;;;;;;;;;;5053397;28;20240;-79
2022/06/03 06:39:35;;;;;;;3.53;1.90;;;;;;;;;;5054751;28;20572;-80
2022/06/03 06:42:08;;;;;;;1.60;1.47;;;;;;;;;;5054095;28;20221;-80
2022/06/03 06:44:37;;;;;;;1.80;1.70;;;;;;;;;;5054338;28;20271;-80
2022/06/03 06:47:09;;;;;;;1.80;1.70;;;;;;;;;;5055058;28;20209;-79
2022/06/03 06:49:38;;;;;;;3.23;1.60;;;;;;;;;;5058243;28;20216;-81
2022/06/03 06:52:08;;;;;;;1.47;1.37;;;;;;;;;;5060503;28;20260;-81
2022/06/03 06:54:40;;;;;;;2.10;1.53;;;;;;;;;;5066417;28;20234;-81
2022/06/03 06:57:11;;;;;;;1.93;1.33;;;;;;;;;;5066649;28;20309;-81
2022/06/03 06:59:41;;;;;;;3.53;1.60;;;;;;;;;;5063932;28;20233;-79
2022/06/03 07:02:11;;;;;;;3.13;1.45;;;;;;;;;;5061508;28;20202;-79
2022/06/03 07:04:41;;;;;;;2.65;1.35;;;;;;;;;;5061133;28;20234;-79
2022/06/03 07:07:13;;;;;;;1.50;1.40;;;;;;;;;;5062769;28;20224;-79
2022/06/03 07:09:43;;;;;;;2.95;1.30;;;;;;;;;;5061399;28;20232;-80
2022/06/03 07:12:14;;;;;;;2.28;1.33;;;;;;;;;;5064695;28;20233;-79
2022/06/03 07:14:44;;;;;;;1.67;1.35;;;;;;;;;;5055340;28;20222;-80
2022/06/03 07:20:05;;;;;;;2.63;1.50;;;;;;;;;;5026064;28;20701;-79
2022/06/03 07:22:37;;;;;;;3.03;1.40;;;;;;;;;;5057164;28;20666;-81
2022/06/03 07:25:07;;;;;;;1.40;1.30;;;;;;;;;;5054899;28;20613;-80
2022/06/03 07:27:47;;;;;;;1.30;1.17;;;;;;;;;;5056253;28;20218;-80
2022/06/03 07:30:19;;;;;;;4.43;1.20;;;;;;;;;;5056083;28;20257;-80
2022/06/03 07:32:48;;;;;;;2.67;1.40;;;;;;;;;;5056371;28;20234;-80
2022/06/03 07:35:20;;;;;;;1.00;1.00;;;;;;;;;;5057807;28;20253;-81
2022/06/03 07:37:49;;;;;;;1.13;1.13;;;;;;;;;;5059354;28;20205;-80
2022/06/03 07:40:19;;;;;;;1.10;1.10;;;;;;;;;;5058330;28;20234;-81
2022/06/03 07:42:51;;;;;;;1.00;1.00;;;;;;;;;;5062481;28;20202;-81
2022/06/03 07:45:28;;;;;;;3.03;1.30;;;;;;;;;;5061869;28;20230;-81
2022/06/03 07:47:56;;;;;;;1.38;1.13;;;;;;;;;;5060308;28;20217;-81
2022/06/03 07:50:23;;;;;;;0.98;0.98;;;;;;;;;;5060880;28;20252;-81
2022/06/03 07:52:54;;;;;;;2.35;1.40;;;;;;;;;;5060881;28;20283;-81
2022/06/03 07:55:22;;;;;;;1.17;1.08;;;;;;;;;;5060684;28;20259;-81
2022/06/03 07:57:51;;;;;;;1.70;1.20;;;;;;;;;;5061121;28;20206;-81
2022/06/03 08:00:19;;;;;;;1.23;1.10;;;;;;;;;;5060750;28;20237;-81
2022/06/03 08:02:46;;;;;;;1.70;1.13;;;;;;;;;;5059492;28;20208;-80
2022/06/03 08:05:15;;;;;;;2.50;1.00;;;;;;;;;;5054772;28;20325;-81
2022/06/03 08:13:16;;;;;;;1.17;1.05;;;;;;;;;;5062181;28;20729;-81
2022/06/03 08:15:46;;;;;;;1.98;1.20;;;;;;;;;;5071027;28;20232;-82
2022/06/03 08:18:16;;;;;;;1.98;1.20;;;;;;;;;;5063034;28;20202;-82
2022/06/03 08:20:45;;;;;;;5.78;1.38;;;;;;;;;;5059215;28;20240;-80
2022/06/03 08:23:12;;;;;;;1.33;1.23;;;;;;;;;;5060042;28;20210;-82
2022/06/03 08:25:42;;;;;;;4.18;1.23;;;;;;;;;;5060672;28;20238;-81
2022/06/03 08:28:12;;;;;;;3.50;1.02;;;;;;;;;;5051877;28;20232;-81
2022/06/03 08:30:41;;;;;;;1.40;1.20;;;;;;;;;;5060471;28;20241;-80
2022/06/03 08:33:10;;;;;;;1.17;1.10;;;;;;;;;;5052368;28;20405;-81
2022/06/03 08:35:40;;;;;;;1.98;1.00;;;;;;;;;;5059590;28;20255;-81
2022/06/03 08:38:08;;;;;;;1.33;1.23;;;;;;;;;;5060118;28;20214;-83
2022/06/03 08:40:39;;;;;;;1.17;1.13;;;;;;;;;;5058448;28;20229;-80
2022/06/03 08:43:11;;;;;;;1.55;1.40;;;;;;;;;;5060966;28;20667;-81
2022/06/03 08:45:47;;;;;;;2.38;1.60;;;;;;;;;;5058313;28;20241;-82
2022/06/03 08:48:16;;;;;;;2.00;1.90;;;;;;;;;;5061044;28;20202;-81
2022/06/03 08:50:44;;;;;;;1.42;1.33;;;;;;;;;;5060126;28;20237;-81
2022/06/03 08:53:18;;;;;;;1.35;1.17;;;;;;;;;;5059753;28;20226;-82
2022/06/03 08:55:47;;;;;;;1.42;1.10;;;;;;;;;;5059959;28;20233;-81
2022/06/03 08:58:26;;;;;;;3.20;1.30;;;;;;;;;;5060026;28;20213;-81
2022/06/03 09:01:05;;;;;;;2.05;1.30;;;;;;;;;;5045918;28;20261;-81
2022/06/03 09:03:37;;;;;;;3.10;1.55;;;;;;;;;;5042304;28;20222;-81
2022/06/03 09:06:06;;;;;;;2.40;1.40;;;;;;;;;;5050517;28;20294;-80
2022/06/03 09:08:36;;;;;;;1.58;1.48;;;;;;;;;;5069705;28;20197;-82
2022/06/03 09:11:05;;;;;;;1.55;1.45;;;;;;;;;;5066819;28;20233;-82
2022/06/03 09:13:35;;;;;;;1.35;1.25;;;;;;;;;;5056071;28;20241;-80
2022/06/03 09:16:05;;;;;;;3.47;1.33;;;;;;;;;;5068098;28;20606;-81
2022/06/03 09:18:35;;;;;;;1.52;1.38;;;;;;;;;;5079701;28;20210;-81
2022/06/03 09:21:04;;;;;;;1.63;1.52;;;;;;;;;;5058781;28;20222;-80
2022/06/03 09:23:36;;;;;;;5.00;1.65;;;;;;;;;;5063871;28;20230;-81
2022/06/03 09:26:03;;;;;;;1.70;1.60;;;;;;;;;;5077059;28;20329;-81
2022/06/03 09:28:32;;;;;;;1.50;1.40;;;;;;;;;;5078766;28;20308;-81
2022/06/03 09:30:59;;;;;;;1.60;1.50;;;;;;;;;;5078658;28;20646;-80
2022/06/03 09:33:29;;;;;;;1.60;1.50;;;;;;;;;;5078714;28;20225;-81
2022/06/03 09:35:58;;;;;;;1.55;1.45;;;;;;;;;;5078787;28;20260;-81
2022/06/03 09:38:26;;;;;;;2.85;1.30;;;;;;;;;;5071471;28;20207;-80
2022/06/03 09:40:57;;;;;;;2.03;1.40;;;;;;;;;;5066917;28;20230;-81
2022/06/03 09:43:27;;;;;;;1.75;1.60;;;;;;;;;;5079837;28;20248;-81
2022/06/03 09:45:58;;;;;;;1.52;1.42;;;;;;;;;;5079583;28;20717;-82
2022/06/03 09:48:26;;;;;;;1.30;1.30;;;;;;;;;;5078106;28;20212;-80
2022/06/03 09:50:56;;;;;;;1.80;1.42;;;;;;;;;;5077915;28;20244;-81
2022/06/03 09:53:26;;;;;;;1.58;1.42;;;;;;;;;;5081791;28;20229;-80
2022/06/03 09:55:55;;;;;;;1.73;1.52;;;;;;;;;;5077843;28;20229;-80
2022/06/03 09:58:23;;;;;;;2.22;1.35;;;;;;;;;;5077539;28;20213;-81
2022/06/03 10:00:52;;;;;;;2.38;1.58;;;;;;;;;;5062356;28;20233;-81
2022/06/03 10:03:19;;;;;;;1.65;1.40;;;;;;;;;;5056782;28;20230;-81
2022/06/03 10:05:48;;;;;;;3.42;1.50;;;;;;;;;;5053305;28;20650;-82
2022/06/03 10:08:17;;;;;;;3.70;1.50;;;;;;;;;;5071780;28;20236;-80
2022/06/03 10:13:31;;;;;;;1.65;1.55;;;;;;;;;;5072877;28;20604;-78
2022/06/03 10:16:00;;;;;;;5.10;1.60;;;;;;;;;;5052304;28;20268;-81
2022/06/03 10:18:32;;;;;;;1.95;1.73;;;;;;;;;;5052724;28;20242;-79
2022/06/03 10:21:00;;;;;;;2.58;1.30;;;;;;;;;;5051677;28;20246;-79
2022/06/03 10:23:30;;;;;;;2.97;1.70;;;;;;;;;;5051055;28;20234;-79
2022/06/03 10:26:01;;;;;;;1.50;1.40;;;;;;;;;;5050339;28;20702;-80
2022/06/03 10:28:32;;;;;;;2.47;1.50;;;;;;;;;;5051605;28;20187;-80
2022/06/03 10:31:01;;;;;;;2.70;1.88;;;;;;;;;;5050704;28;20340;-81
2022/06/03 10:33:28;;;;;;;1.92;1.42;;;;;;;;;;5051774;28;20229;-80
2022/06/03 10:35:57;;;;;;;1.60;1.50;;;;;;;;;;5060030;28;20240;-79
2022/06/03 10:38:27;;;;;;;2.85;1.30;;;;;;;;;;5071713;28;20223;-79
2022/06/03 10:40:56;;;;;;;2.13;1.40;;;;;;;;;;5065574;28;20245;-79
2022/06/03 10:43:24;;;;;;;8.32;1.92;;;;;;;;;;5056786;28;20616;-81
2022/06/03 10:45:51;;;;;;;2.65;1.50;;;;;;;;;;5069959;28;20748;-82
2022/06/03 10:48:23;;;;;;;1.40;1.30;;;;;;;;;;5068741;28;20213;-79
2022/06/03 10:50:50;;;;;;;1.65;1.50;;;;;;;;;;5030437;28;20241;-80
2022/06/03 11:02:04;;;;;;;1.60;1.50;;;;;;;;;;4994107;28;20715;-79
2022/06/03 11:04:33;;;;;;;2.97;1.50;;;;;;;;;;4988025;28;20239;-79
2022/06/03 11:07:02;;;;;;;5.70;1.60;;;;;;;;;;5017317;28;20248;-83
2022/06/03 11:09:29;;;;;;;2.10;1.58;;;;;;;;;;5051470;28;20206;-79
2022/06/03 11:12:01;;;;;;;1.55;1.45;;;;;;;;;;5054079;28;20601;-80
2022/06/03 11:14:38;;;;;;;2.83;1.70;;;;;;;;;;5054886;28;20233;-80
2022/06/03 11:17:11;;;;;;;1.70;1.60;;;;;;;;;;5054049;28;20230;-79
2022/06/03 11:19:40;;;;;;;2.05;1.40;;;;;;;;;;5053341;28;20647;-82
2022/06/03 11:22:28;;;;;;;2.60;1.65;;;;;;;;;;5054273;28;20214;-79
2022/06/03 11:24:57;;;;;;;5.78;1.63;;;;;;;;;;5052998;28;20230;-79
2022/06/03 11:27:28;;;;;;;2.03;1.58;;;;;;;;;;5053894;28;20206;-80
2022/06/03 11:29:56;;;;;;;2.25;1.75;;;;;;;;;;5054553;28;20258;-80
2022/06/03 11:32:25;;;;;;;1.83;1.73;;;;;;;;;;5055132;28;20298;-79
2022/06/03 11:34:55;;;;;;;2.70;1.55;;;;;;;;;;5054196;28;20336;-83
2022/06/03 11:37:25;;;;;;;2.58;1.85;;;;;;;;;;5054317;28;20233;-79
2022/06/03 11:39:54;;;;;;;4.80;1.55;;;;;;;;;;5053329;28;20232;-82
2022/06/03 11:42:24;;;;;;;1.60;1.50;;;;;;;;;;5053900;28;20198;-80
2022/06/03 11:44:55;;;;;;;1.90;1.80;;;;;;;;;;5057040;28;20261;-79
2022/06/03 11:47:25;;;;;;;2.55;1.80;;;;;;;;;;5060562;28;20213;-81
2022/06/03 11:49:52;;;;;;;3.20;1.67;;;;;;;;;;5053937;28;20237;-82
2022/06/03 11:52:21;;;;;;;1.98;1.55;;;;;;;;;;5056165;28;20209;-83
2022/06/03 11:54:48;;;;;;;2.42;1.40;;;;;;;;;;5056278;28;20221;-80
2022/06/03 11:57:15;;;;;;;1.60;1.50;;;;;;;;;;5055593;28;20191;-82
2022/06/03 11:59:47;;;;;;;1.63;1.50;;;;;;;;;;5069447;28;20217;-81
2022/06/03 12:02:18;;;;;;;1.60;1.50;;;;;;;;;;5068464;28;20258;-84
2022/06/03 12:04:49;;;;;;;3.58;1.50;;;;;;;;;;5077668;28;20278;-82
2022/06/03 12:07:23;;;;;;;2.97;1.90;;;;;;;;;;5069196;28;20198;-82
2022/06/03 12:09:54;;;;;;;2.65;1.67;;;;;;;;;;5053652;28;20210;-78
2022/06/03 12:15:28;;;;;;;1.75;1.65;;;;;;;;;;5055457;28;20368;-80
2022/06/03 12:17:56;;;;;;;3.25;1.67;;;;;;;;;;5056626;28;20597;-80
2022/06/03 12:20:36;;;;;;;1.70;1.60;;;;;;;;;;5054845;28;20238;-81
2022/06/03 12:23:18;;;;;;;1.80;1.70;;;;;;;;;;5054899;28;20213;-79
2022/06/03 12:26:05;;;;;;;3.20;1.92;;;;;;;;;;5052618;28;20234;-80
2022/06/03 12:28:33;;;;;;;2.60;1.60;;;;;;;;;;5054449;28;20655;-83
2022/06/03 12:31:02;;;;;;;2.15;1.40;;;;;;;;;;5056719;28;20233;-79
2022/06/03 12:33:33;;;;;;;1.83;1.60;;;;;;;;;;5075747;28;20233;-80
2022/06/03 12:36:02;;;;;;;3.05;2.00;;;;;;;;;;5046570;28;20320;-79
2022/06/03 12:38:53;;;;;;;2.42;1.73;;;;;;;;;;5035300;28;20206;-80
2022/06/03 12:41:39;;;;;;;1.70;1.60;;;;;;;;;;5037500;28;20245;-80
2022/06/03 12:44:06;;;;;;;2.80;1.65;;;;;;;;;;5044523;28;20226;-80
2022/06/03 12:46:41;;;;;;;3.75;1.92;;;;;;;;;;5043610;28;20237;-82
2022/06/03 12:49:20;;;;;;;3.33;1.85;;;;;;;;;;5044213;28;20202;-80
2022/06/03 12:51:57;;;;;;;3.13;1.90;;;;;;;;;;5043912;28;20238;-82
2022/06/03 12:54:24;;;;;;;1.60;1.50;;;;;;;;;;5060197;28;20233;-82
2022/06/03 12:56:53;;;;;;;3.38;1.70;;;;;;;;;;5081590;28;20245;-83
2022/06/03 12:59:27;;;;;;;2.15;1.80;;;;;;;;;;5072797;28;20216;-83
2022/06/03 13:02:01;;;;;;;1.65;1.55;;;;;;;;;;5039888;28;20234;-80
2022/06/03 13:04:41;;;;;;;2.00;1.73;;;;;;;;;;5034918;28;20284;-79
2022/06/03 13:07:11;;;;;;;2.20;1.70;;;;;;;;;;5034263;28;20345;-82
2022/06/03 13:09:51;;;;;;;1.60;1.50;;;;;;;;;;5033508;28;20215;-82
2022/06/03 13:12:20;;;;;;;1.90;1.80;;;;;;;;;;5034240;28;20217;-81
2022/06/03 13:14:47;;;;;;;3.55;1.90;;;;;;;;;;5034239;28;20236;-80
2022/06/03 13:17:30;;;;;;;1.77;1.67;;;;;;;;;;5035119;28;20214;-79
2022/06/03 13:19:59;;;;;;;1.55;1.45;;;;;;;;;;5031843;28;20241;-79
2022/06/03 13:22:29;;;;;;;2.47;1.60;;;;;;;;;;5034061;28;20207;-80
2022/06/03 13:25:23;;;;;;;2.47;1.35;;;;;;;;;;5032269;28;20242;-79
2022/06/03 13:28:08;;;;;;;2.47;1.50;;;;;;;;;;4985921;28;20207;-79
2022/06/03 13:30:36;;;;;;;2.10;1.55;;;;;;;;;;5032135;28;20256;-79
2022/06/03 13:33:14;;;;;;;1.80;1.70;;;;;;;;;;5031881;28;20230;-81
2022/06/03 13:35:58;;;;;;;1.60;1.50;;;;;;;;;;5031799;28;20238;-80
2022/06/03 13:38:27;;;;;;;1.77;1.67;;;;;;;;;;5032783;28;20198;-80
2022/06/03 13:44:04;;;;;;;2.45;1.70;;;;;;;;;;5031801;28;20345;-79
2022/06/03 13:46:32;;;;;;;1.95;1.70;;;;;;;;;;5056643;28;20228;-80
2022/06/03 13:49:00;;;;;;;2.15;1.85;;;;;;;;;;5062209;28;20209;-83
2022/06/03 13:51:39;;;;;;;2.08;1.98;;;;;;;;;;5057584;28;20230;-80
2022/06/03 13:54:16;;;;;;;1.60;1.50;;;;;;;;;;5051428;28;20233;-80
2022/06/03 13:56:52;;;;;;;1.70;1.60;;;;;;;;;;5052432;28;20305;-82
2022/06/03 13:59:19;;;;;;;2.50;1.88;;;;;;;;;;5051894;28;20197;-80
2022/06/03 14:01:50;;;;;;;2.38;2.17;;;;;;;;;;5053343;28;20597;-79
2022/06/03 14:04:19;;;;;;;4.25;1.70;;;;;;;;;;5053202;28;20226;-82
2022/06/03 14:06:56;;;;;;;2.25;2.00;;;;;;;;;;5050657;28;20257;-80
2022/06/03 14:09:27;;;;;;;1.80;1.63;;;;;;;;;;5052842;28;20201;-80
2022/06/03 14:11:56;;;;;;;2.05;1.80;;;;;;;;;;5051434;28;20237;-80
2022/06/03 14:14:25;;;;;;;2.50;1.60;;;;;;;;;;5054710;28;20264;-80
2022/06/03 14:16:54;;;;;;;3.45;1.80;;;;;;;;;;5053334;28;20271;-82
2022/06/03 14:19:41;;;;;;;5.43;2.00;;;;;;;;;;5051324;28;20347;-79
2022/06/03 14:22:14;;;;;;;2.00;1.85;;;;;;;;;;5045958;28;20682;-80
2022/06/03 14:24:44;;;;;;;2.25;1.70;;;;;;;;;;5049038;28;20233;-79
2022/06/03 14:27:14;;;;;;;2.20;2.00;;;;;;;;;;5050918;28;20609;-81
2022/06/03 14:29:43;;;;;;;2.20;2.00;;;;;;;;;;5050394;28;20198;-79
2022/06/03 14:32:12;;;;;;;2.42;1.83;;;;;;;;;;5051320;28;20585;-80
2022/06/03 14:34:42;;;;;;;2.13;1.85;;;;;;;;;;5051985;28;20298;-80
2022/06/03 14:37:15;;;;;;;3.50;2.15;;;;;;;;;;5051780;28;20194;-81
2022/06/03 14:39:44;;;;;;;1.90;1.80;;;;;;;;;;5051767;28;20201;-79
2022/06/03 14:42:12;;;;;;;4.53;1.92;;;;;;;;;;5050844;28;20647;-81
2022/06/03 14:44:40;;;;;;;3.28;2.13;;;;;;;;;;5034132;28;20218;-77
2022/06/03 14:47:09;;;;;;;2.33;2.10;;;;;;;;;;5034846;28;20191;-80
2022/06/03 14:49:38;;;;;;;3.78;2.10;;;;;;;;;;5034338;28;20218;-78
2022/06/03 14:52:08;;;;;;;5.65;2.47;;;;;;;;;;5034856;28;20210;-80
2022/06/03 14:54:39;;;;;;;4.88;2.10;;;;;;;;;;5034721;28;20237;-80
2022/06/03 14:57:07;;;;;;;3.45;2.20;;;;;;;;;;5034625;28;20237;-80
2022/06/03 14:59:48;;;;;;;3.50;2.08;;;;;;;;;;5034543;28;20261;-80
2022/06/03 15:02:17;;;;;;;5.18;2.30;;;;;;;;;;5034850;28;20218;-79
2022/06/03 15:04:47;;;;;;;2.58;2.10;;;;;;;;;;5034295;28;20227;-80
2022/06/03 15:07:19;;;;;;;2.00;1.73;;;;;;;;;;5053496;28;20205;-81
2022/06/03 15:09:49;;;;;;;2.67;2.47;;;;;;;;;;5054220;28;20194;-79
2022/06/03 15:12:18;;;;;;;2.72;2.28;;;;;;;;;;5054362;28;20536;-79
2022/06/03 15:14:46;;;;;;;3.65;2.35;;;;;;;;;;5053711;28;20236;-81
2022/06/03 15:17:15;;;;;;;3.85;2.75;;;;;;;;;;5054302;28;20538;-80
2022/06/03 15:19:44;;;;;;;3.30;2.42;;;;;;;;;;5053693;28;20298;-79
2022/06/03 15:22:14;;;;;;;2.65;2.28;;;;;;;;;;5050421;28;20566;-79
2022/06/03 15:24:44;;;;;;;4.63;2.63;;;;;;;;;;5053406;28;20234;-78
2022/06/03 15:27:13;;;;;;;4.18;2.03;;;;;;;;;;5051662;28;20194;-78
2022/06/03 15:29:41;;;;;;;2.88;2.47;;;;;;;;;;5053441;28;20705;-79
2022/06/03 15:32:11;;;;;;;5.07;2.67;;;;;;;;;;5033952;28;20585;-79
2022/06/03 15:34:38;;;;;;;4.13;2.35;;;;;;;;;;5033706;28;20309;-80
2022/06/03 15:37:05;;;;;;;3.78;2.60;;;;;;;;;;5034029;28;20253;-78
2022/06/03 15:39:34;;;;;;;3.35;2.30;;;;;;;;;;5033356;28;20203;-79
2022/06/03 15:42:01;;;;;;;3.05;2.40;;;;;;;;;;5033959;28;20302;-79
2022/06/03 15:44:33;;;;;;;2.20;2.03;;;;;;;;;;5033958;28;20227;-80
2022/06/03 15:47:02;;;;;;;4.80;2.50;;;;;;;;;;5033576;28;20276;-80
2022/06/03 15:49:32;;;;;;;2.50;2.25;;;;;;;;;;5033953;28;20675;-79
2022/06/03 15:52:00;;;;;;;4.55;2.45;;;;;;;;;;5033352;28;20230;-79
2022/06/03 15:54:29;;;;;;;3.65;2.40;;;;;;;;;;5033561;28;20711;-80
2022/06/03 15:57:13;;;;;;;3.65;2.20;;;;;;;;;;5032408;28;20792;-79